Torquay, Canada
Current Conditions -  °F | °C
As of 6:15 AM on Sunday 21 Dec 2014 (Local Time) from KD50 Reporting Station
Clear Clear  
Wind Chill:   Ceiling: Unl
Heat Index: 19°   Visibility: 10mi
Dew Point: 19°   Wind: 8mph
Humidity: 100%   Direction: 200°SSW
Pressure: 29.53"   Gusts: NA
Location:  49.14°N, 103.5°W
Report Text: KD50 211215Z AUTO 20007KT 10SM CLR M07/M07 A2953 RMK AO2
Loading
Personal Weather Stations






























Interactive Weather Map New forecast layout! Learn more

10-Day Weather Forecast

Advertisements
Track Severe Weather on mobile